Time;durP1;ratioP1;P1;durP2;ratioP2;P2;SDS_P1;SDS_P2;PMS_P1;PMS_P2;Temp;Humidity;BMP_temperature;BMP_pressure;BME280_temperature;BME280_humidity;BME280_pressure;Samples;Min_cycle;Max_cycle;Signal;HPM_P1;HPM_P2
2023/03/09 00:02:14;;;;;;;;;;;;;;;9.60;nan;98038.75;4989490;28;19918;-86
2023/03/09 00:04:39;;;;;;;;;;;;;;;9.56;nan;98041.81;4988813;28;19921;-86
2023/03/09 00:07:04;;;;;;;;;;;;;;;9.54;nan;98043.84;4991346;28;20268;-87
2023/03/09 00:09:29;;;;;;;;;;;;;;;9.54;nan;98035.94;4989487;28;19936;-87
2023/03/09 00:11:55;;;;;;;;;;;;;;;9.54;nan;98041.19;4991391;28;19956;-86
2023/03/09 00:14:24;;;;;;;;;;;;;;;9.56;nan;98035.72;4997407;28;19917;-88
2023/03/09 00:16:49;;;;;;;;;;;;;;;9.51;nan;98023.16;4991600;28;19924;-87
2023/03/09 00:19:26;;;;;;;;;;;;;;;9.52;nan;98023.97;4994166;28;19920;-86
2023/03/09 00:21:52;;;;;;;;;;;;;;;9.46;nan;98014.22;5006816;28;19951;-87
2023/03/09 00:24:18;;;;;;;;;;;;;;;9.45;nan;98009.97;4993528;28;20441;-86
2023/03/09 00:26:47;;;;;;;;;;;;;;;9.41;nan;97999.00;4991480;28;20012;-87
2023/03/09 00:29:13;;;;;;;;;;;;;;;9.38;nan;98001.25;5009196;28;19925;-87
2023/03/09 00:31:38;;;;;;;;;;;;;;;9.34;nan;98006.13;4992931;28;19917;-86
2023/03/09 00:34:04;;;;;;;;;;;;;;;9.32;nan;98000.28;4992945;28;19921;-87
2023/03/09 00:36:29;;;;;;;;;;;;;;;9.33;nan;98001.88;4991593;28;20434;-87
2023/03/09 00:38:55;;;;;;;;;;;;;;;9.35;nan;98013.03;5009450;28;20015;-86
2023/03/09 00:41:21;;;;;;;;;;;;;;;9.36;nan;98014.66;5011329;28;19925;-86
2023/03/09 00:43:46;;;;;;;;;;;;;;;9.36;nan;98026.00;5009810;28;20469;-86
2023/03/09 00:46:13;;;;;;;;;;;;;;;9.37;nan;98029.47;5010762;28;19924;-87
2023/03/09 00:48:38;;;;;;;;;;;;;;;9.35;nan;98024.41;4994598;28;19936;-87
2023/03/09 00:51:03;;;;;;;;;;;;;;;9.35;nan;98021.75;4991275;28;19921;-86
2023/03/09 00:53:29;;;;;;;;;;;;;;;9.35;nan;98023.59;4992634;28;19929;-86
2023/03/09 00:55:54;;;;;;;;;;;;;;;9.33;nan;98022.97;4993597;28;19922;-87
2023/03/09 00:58:19;;;;;;;;;;;;;;;9.35;nan;98026.22;5001206;28;20015;-87
2023/03/09 01:00:44;;;;;;;;;;;;;;;9.33;nan;98031.69;4990812;28;20000;-88
2023/03/09 01:03:09;;;;;;;;;;;;;;;9.32;nan;98043.28;5008547;28;19918;-87
2023/03/09 01:05:36;;;;;;;;;;;;;;;9.31;nan;98043.47;4992637;28;19921;-88
2023/03/09 01:08:01;;;;;;;;;;;;;;;9.33;nan;98039.59;5011211;28;20020;-88
2023/03/09 01:10:26;;;;;;;;;;;;;;;9.31;nan;98040.84;4992491;28;20011;-88
2023/03/09 01:12:52;;;;;;;;;;;;;;;9.31;nan;98046.91;5011433;28;19925;-87
2023/03/09 01:15:17;;;;;;;;;;;;;;;9.29;nan;98045.50;5012152;28;19918;-87
2023/03/09 01:17:43;;;;;;;;;;;;;;;9.26;nan;98048.53;4991364;28;19961;-87
2023/03/09 01:20:09;;;;;;;;;;;;;;;9.21;nan;98046.53;5007571;28;19956;-87
2023/03/09 01:22:34;;;;;;;;;;;;;;;9.18;nan;98057.47;5015805;28;19917;-87
2023/03/09 01:24:59;;;;;;;;;;;;;;;9.13;nan;98057.28;5013010;28;19917;-87
2023/03/09 01:27:25;;;;;;;;;;;;;;;9.10;nan;98047.13;4992484;28;19917;-86
2023/03/09 01:29:50;;;;;;;;;;;;;;;9.04;nan;98050.59;4997014;28;20006;-86
2023/03/09 01:32:16;;;;;;;;;;;;;;;9.00;nan;98050.16;5009377;28;19921;-87
2023/03/09 01:34:41;;;;;;;;;;;;;;;8.92;nan;98045.91;5004831;28;20403;-87
2023/03/09 01:37:06;;;;;;;;;;;;;;;8.89;nan;98033.16;5001963;28;19921;-87
2023/03/09 01:39:31;;;;;;;;;;;;;;;8.86;nan;98046.72;4998899;28;19924;-87
2023/03/09 01:41:57;;;;;;;;;;;;;;;8.86;nan;98038.81;5016828;28;19956;-87
2023/03/09 01:44:22;;;;;;;;;;;;;;;8.82;nan;98040.25;5019565;28;19925;-86
2023/03/09 01:46:54;;;;;;;;;;;;;;;8.81;nan;98045.69;5020516;28;19917;-89
2023/03/09 01:49:28;;;;;;;;;;;;;;;8.83;nan;98043.69;5018872;28;19981;-86
2023/03/09 01:52:12;;;;;;;;;;;;;;;8.83;nan;98043.69;4998996;28;19996;-87
2023/03/09 01:54:44;;;;;;;;;;;;;;;8.81;nan;98050.97;5003794;28;19917;-87
2023/03/09 01:57:26;;;;;;;;;;;;;;;8.85;nan;98053.00;5004276;28;19913;-86
2023/03/09 01:59:53;;;;;;;;;;;;;;;8.87;nan;98060.72;4999782;28;19914;-87
2023/03/09 02:02:20;;;;;;;;;;;;;;;8.87;nan;98045.72;4999042;28;20374;-86
2023/03/09 02:04:49;;;;;;;;;;;;;;;8.87;nan;98052.81;4995159;28;20095;-87
2023/03/09 02:07:16;;;;;;;;;;;;;;;8.87;nan;98066.00;5009879;28;19998;-86
2023/03/09 02:09:44;;;;;;;;;;;;;;;8.86;nan;98057.25;5010207;28;20014;-86
2023/03/09 02:12:11;;;;;;;;;;;;;;;8.87;nan;98071.25;4990521;28;19917;-86
2023/03/09 02:14:37;;;;;;;;;;;;;;;8.88;nan;98081.59;4985181;28;19917;-87
2023/03/09 02:17:02;;;;;;;;;;;;;;;8.91;nan;98070.66;4995596;28;19925;-86
2023/03/09 02:19:40;;;;;;;;;;;;;;;8.89;nan;98077.94;4981950;28;20222;-88
2023/03/09 02:22:05;;;;;;;;;;;;;;;8.89;nan;98075.31;5010135;28;19917;-88
2023/03/09 02:24:37;;;;;;;;;;;;;;;8.86;nan;98069.63;5002965;28;20386;-87
2023/03/09 02:27:21;;;;;;;;;;;;;;;8.83;nan;98072.66;4991716;28;19917;-86
2023/03/09 02:29:47;;;;;;;;;;;;;;;8.83;nan;98076.09;4987130;28;20430;-86
2023/03/09 02:32:12;;;;;;;;;;;;;;;8.82;nan;98085.03;5007508;28;19917;-86
2023/03/09 02:34:38;;;;;;;;;;;;;;;8.84;nan;98095.34;4989217;28;19925;-85
2023/03/09 02:37:03;;;;;;;;;;;;;;;8.82;nan;98094.75;5005213;28;19987;-86
2023/03/09 02:39:28;;;;;;;;;;;;;;;8.82;nan;98110.56;5006781;28;19921;-86
2023/03/09 02:41:54;;;;;;;;;;;;;;;8.81;nan;98119.47;5008929;28;20420;-87
2023/03/09 02:44:20;;;;;;;;;;;;;;;8.83;nan;98130.63;4989817;28;19925;-86
2023/03/09 02:46:45;;;;;;;;;;;;;;;8.83;nan;98138.53;4990414;28;19926;-87
2023/03/09 02:49:10;;;;;;;;;;;;;;;8.85;nan;98150.50;5010167;28;19917;-88
2023/03/09 02:51:35;;;;;;;;;;;;;;;8.80;nan;98162.66;4993266;28;19918;-87
2023/03/09 02:54:01;;;;;;;;;;;;;;;8.79;nan;98169.72;4990592;28;20421;-88
2023/03/09 02:56:26;;;;;;;;;;;;;;;8.78;nan;98189.19;5008756;28;20019;-86
2023/03/09 02:58:51;;;;;;;;;;;;;;;8.79;nan;98184.75;4991710;28;20345;-86
2023/03/09 03:01:16;;;;;;;;;;;;;;;8.78;nan;98205.00;4989936;28;19927;-86
2023/03/09 03:03:41;;;;;;;;;;;;;;;8.79;nan;98211.09;5010972;28;19925;-86
2023/03/09 03:06:07;;;;;;;;;;;;;;;8.77;nan;98215.75;4989539;28;19948;-87
2023/03/09 03:08:32;;;;;;;;;;;;;;;8.78;nan;98225.28;5007339;28;20608;-87
2023/03/09 03:10:57;;;;;;;;;;;;;;;8.77;nan;98224.47;4996896;28;19933;-88
2023/03/09 03:13:22;;;;;;;;;;;;;;;8.79;nan;98221.63;4995155;28;19917;-87
2023/03/09 03:15:48;;;;;;;;;;;;;;;8.81;nan;98209.06;4989456;28;19917;-87
2023/03/09 03:18:13;;;;;;;;;;;;;;;8.80;nan;98213.53;4991559;28;20572;-87
2023/03/09 03:20:38;;;;;;;;;;;;;;;8.79;nan;98224.25;4994315;28;19917;-87
2023/03/09 03:23:03;;;;;;;;;;;;;;;8.75;nan;98233.56;4988858;28;19914;-87
2023/03/09 03:25:28;;;;;;;;;;;;;;;8.76;nan;98249.19;4994164;28;19927;-87
2023/03/09 03:27:54;;;;;;;;;;;;;;;8.74;nan;98240.66;4992165;28;19979;-87
2023/03/09 03:30:19;;;;;;;;;;;;;;;8.69;nan;98243.88;4990284;28;19918;-87
2023/03/09 03:32:45;;;;;;;;;;;;;;;8.65;nan;98262.91;4988455;28;19925;-86
2023/03/09 03:35:11;;;;;;;;;;;;;;;8.62;nan;98263.31;4995340;28;20301;-88
2023/03/09 03:37:37;;;;;;;;;;;;;;;8.60;nan;98270.59;5004308;28;19944;-87
2023/03/09 03:40:06;;;;;;;;;;;;;;;8.58;nan;98275.22;5020751;28;19957;-88
2023/03/09 03:42:31;;;;;;;;;;;;;;;8.56;nan;98282.53;4996955;28;19996;-87
2023/03/09 03:44:56;;;;;;;;;;;;;;;8.53;nan;98291.63;5022518;28;19956;-87
2023/03/09 03:47:21;;;;;;;;;;;;;;;8.55;nan;98301.97;4997414;28;20365;-87
2023/03/09 03:49:46;;;;;;;;;;;;;;;8.54;nan;98305.63;4998690;28;20352;-87
2023/03/09 03:52:12;;;;;;;;;;;;;;;8.54;nan;98308.25;5012570;28;19928;-87
2023/03/09 03:54:37;;;;;;;;;;;;;;;8.53;nan;98322.41;4978185;28;19914;-86
2023/03/09 03:57:03;;;;;;;;;;;;;;;8.53;nan;98331.13;4977708;28;19913;-87
2023/03/09 03:59:28;;;;;;;;;;;;;;;8.52;nan;98332.16;5008337;28;20159;-86
2023/03/09 04:01:53;;;;;;;;;;;;;;;8.51;nan;98346.34;5005751;28;19917;-86
2023/03/09 04:04:19;;;;;;;;;;;;;;;8.46;nan;98359.25;5005068;28;19924;-86
2023/03/09 04:06:44;;;;;;;;;;;;;;;8.45;nan;98374.22;5015759;28;19914;-86
2023/03/09 04:09:09;;;;;;;;;;;;;;;8.43;nan;98381.50;5014790;28;19957;-87
2023/03/09 04:11:34;;;;;;;;;;;;;;;8.42;nan;98392.25;5008276;28;19925;-86
2023/03/09 04:14:01;;;;;;;;;;;;;;;8.42;nan;98395.69;5032150;28;19918;-87
2023/03/09 04:16:26;;;;;;;;;;;;;;;8.46;nan;98407.47;4996250;28;20418;-86
2023/03/09 04:18:51;;;;;;;;;;;;;;;8.45;nan;98410.28;4995527;28;20008;-86
2023/03/09 04:21:16;;;;;;;;;;;;;;;8.48;nan;98423.06;5013155;28;19921;-86
2023/03/09 04:23:42;;;;;;;;;;;;;;;8.48;nan;98410.72;5012681;28;19913;-85
2023/03/09 04:26:07;;;;;;;;;;;;;;;8.50;nan;98421.06;4994855;28;20370;-86
2023/03/09 04:28:32;;;;;;;;;;;;;;;8.49;nan;98433.44;4994918;28;19924;-85
2023/03/09 04:30:57;;;;;;;;;;;;;;;8.52;nan;98441.97;4990962;28;20024;-86
2023/03/09 04:33:22;;;;;;;;;;;;;;;8.54;nan;98440.78;4992435;28;20374;-85
2023/03/09 04:35:47;;;;;;;;;;;;;;;8.58;nan;98444.66;4992955;28;20368;-85
2023/03/09 04:38:13;;;;;;;;;;;;;;;8.59;nan;98442.84;4991426;28;19948;-86
2023/03/09 04:40:38;;;;;;;;;;;;;;;8.65;nan;98444.69;4992399;28;20449;-86
2023/03/09 04:43:04;;;;;;;;;;;;;;;8.67;nan;98448.75;4994030;28;20566;-85
2023/03/09 04:45:30;;;;;;;;;;;;;;;8.65;nan;98453.44;4992141;28;19921;-86
2023/03/09 04:47:55;;;;;;;;;;;;;;;8.64;nan;98464.97;4992378;28;19917;-86
2023/03/09 04:50:20;;;;;;;;;;;;;;;8.70;nan;98472.13;5007951;28;20405;-86
2023/03/09 04:52:46;;;;;;;;;;;;;;;8.71;nan;98478.19;4993162;28;19940;-86
2023/03/09 04:55:11;;;;;;;;;;;;;;;8.69;nan;98478.38;5001151;28;19920;-86
2023/03/09 04:57:36;;;;;;;;;;;;;;;8.71;nan;98478.19;4994048;28;20374;-86
2023/03/09 05:00:04;;;;;;;;;;;;;;;8.71;nan;98479.00;4991821;28;19918;-86
2023/03/09 05:02:29;;;;;;;;;;;;;;;8.75;nan;98484.72;4992435;28;19914;-86
2023/03/09 05:04:54;;;;;;;;;;;;;;;8.75;nan;98497.06;5012189;28;20047;-86
2023/03/09 05:07:20;;;;;;;;;;;;;;;8.75;nan;98503.16;4990878;28;19940;-86
2023/03/09 05:09:45;;;;;;;;;;;;;;;8.73;nan;98499.91;4991056;28;19926;-86
2023/03/09 05:12:10;;;;;;;;;;;;;;;8.71;nan;98492.19;5002609;28;19917;-86
2023/03/09 05:14:35;;;;;;;;;;;;;;;8.69;nan;98503.91;5007963;28;19971;-86
2023/03/09 05:17:01;;;;;;;;;;;;;;;8.68;nan;98515.47;4992718;28;19924;-86
2023/03/09 05:19:26;;;;;;;;;;;;;;;8.68;nan;98518.91;4991635;28;20406;-86
2023/03/09 05:21:51;;;;;;;;;;;;;;;8.71;nan;98533.53;4988727;28;19928;-86
2023/03/09 05:24:16;;;;;;;;;;;;;;;8.70;nan;98545.09;4992946;28;20077;-86
2023/03/09 05:26:41;;;;;;;;;;;;;;;8.74;nan;98542.88;4995687;28;19924;-85
2023/03/09 05:29:07;;;;;;;;;;;;;;;8.79;nan;98545.75;4992543;28;19917;-85
2023/03/09 05:31:32;;;;;;;;;;;;;;;8.83;nan;98553.09;5008522;28;20391;-86
2023/03/09 05:33:57;;;;;;;;;;;;;;;8.82;nan;98554.13;5009534;28;20142;-86
2023/03/09 05:36:23;;;;;;;;;;;;;;;8.82;nan;98540.94;5007192;28;20009;-86
2023/03/09 05:38:49;;;;;;;;;;;;;;;8.81;nan;98543.75;5008472;28;19922;-86
2023/03/09 05:41:15;;;;;;;;;;;;;;;8.80;nan;98542.94;4990314;28;20472;-85
2023/03/09 05:43:41;;;;;;;;;;;;;;;8.77;nan;98547.75;4989834;28;20260;-85
2023/03/09 05:46:07;;;;;;;;;;;;;;;8.77;nan;98545.97;5007947;28;19921;-86
2023/03/09 05:48:32;;;;;;;;;;;;;;;8.77;nan;98545.97;4993469;28;19923;-86
2023/03/09 05:50:59;;;;;;;;;;;;;;;8.78;nan;98544.13;4990775;28;20007;-85
2023/03/09 05:53:24;;;;;;;;;;;;;;;8.79;nan;98548.38;4992393;28;19918;-86
2023/03/09 05:55:53;;;;;;;;;;;;;;;8.80;nan;98553.47;4994360;28;19940;-85
2023/03/09 05:58:18;;;;;;;;;;;;;;;8.77;nan;98567.03;5012035;28;19914;-85
2023/03/09 06:00:43;;;;;;;;;;;;;;;8.73;nan;98568.41;5027801;28;19924;-85
2023/03/09 06:03:08;;;;;;;;;;;;;;;8.67;nan;98571.78;5015497;28;19914;-85
2023/03/09 06:05:33;;;;;;;;;;;;;;;8.61;nan;98576.00;5017421;28;19922;-86
2023/03/09 06:07:59;;;;;;;;;;;;;;;8.55;nan;98573.28;5016837;28;19937;-87
2023/03/09 06:10:24;;;;;;;;;;;;;;;8.48;nan;98575.84;5011033;28;19914;-86
2023/03/09 06:12:49;;;;;;;;;;;;;;;8.44;nan;98569.34;4993195;28;19990;-86
2023/03/09 06:15:14;;;;;;;;;;;;;;;8.40;nan;98581.25;4992726;28;19913;-86
2023/03/09 06:17:40;;;;;;;;;;;;;;;8.36;nan;98582.56;4993124;28;20367;-86
2023/03/09 06:20:05;;;;;;;;;;;;;;;8.33;nan;98585.59;4998045;28;19913;-86
2023/03/09 06:22:30;;;;;;;;;;;;;;;8.27;nan;98589.75;4997050;28;19918;-87
2023/03/09 06:24:56;;;;;;;;;;;;;;;8.24;nan;98596.19;4992783;28;19949;-86
2023/03/09 06:27:21;;;;;;;;;;;;;;;8.23;nan;98597.22;4991127;28;20271;-87
2023/03/09 06:29:46;;;;;;;;;;;;;;;8.23;nan;98597.22;5006260;28;20417;-87
2023/03/09 06:32:11;;;;;;;;;;;;;;;8.22;nan;98600.88;5003492;28;19921;-86
2023/03/09 06:34:37;;;;;;;;;;;;;;;8.21;nan;98599.22;4991636;28;20382;-86
2023/03/09 06:37:02;;;;;;;;;;;;;;;8.25;nan;98599.69;4989351;28;19925;-87
2023/03/09 06:39:28;;;;;;;;;;;;;;;8.24;nan;98604.09;4990092;28;19917;-86
2023/03/09 06:41:53;;;;;;;;;;;;;;;8.24;nan;98611.19;5005734;28;20433;-86
2023/03/09 06:44:18;;;;;;;;;;;;;;;8.28;nan;98610.66;5008228;28;19925;-86
2023/03/09 06:46:43;;;;;;;;;;;;;;;8.34;nan;98624.06;5008841;28;20347;-87
2023/03/09 06:49:09;;;;;;;;;;;;;;;8.35;nan;98623.91;4991800;28;19924;-86
2023/03/09 06:51:34;;;;;;;;;;;;;;;8.39;nan;98634.88;4993821;28;19921;-86
2023/03/09 06:53:59;;;;;;;;;;;;;;;8.44;nan;98637.81;4994595;28;19918;-86
2023/03/09 06:56:24;;;;;;;;;;;;;;;8.53;nan;98649.03;4989939;28;19925;-86
2023/03/09 06:58:52;;;;;;;;;;;;;;;8.58;nan;98657.22;4993811;28;19924;-87
2023/03/09 07:01:18;;;;;;;;;;;;;;;8.63;nan;98660.13;4993786;28;19917;-88
2023/03/09 07:03:43;;;;;;;;;;;;;;;8.66;nan;98665.84;5009538;28;20008;-86
2023/03/09 07:06:09;;;;;;;;;;;;;;;8.70;nan;98672.38;4994528;28;19913;-86
2023/03/09 07:08:34;;;;;;;;;;;;;;;8.74;nan;98677.25;4998512;28;19922;-86
2023/03/09 07:10:59;;;;;;;;;;;;;;;8.69;nan;98683.91;4979618;28;20312;-86
2023/03/09 07:13:25;;;;;;;;;;;;;;;8.67;nan;98682.44;4988116;28;19924;-86
2023/03/09 07:15:50;;;;;;;;;;;;;;;8.66;nan;98691.38;4989751;28;19917;-86
2023/03/09 07:18:15;;;;;;;;;;;;;;;8.65;nan;98685.28;4987939;28;19951;-85
2023/03/09 07:20:41;;;;;;;;;;;;;;;8.67;nan;98693.81;5009023;28;19921;-86
2023/03/09 07:23:07;;;;;;;;;;;;;;;8.70;nan;98693.44;4989757;28;19917;-86
2023/03/09 07:25:35;;;;;;;;;;;;;;;8.73;nan;98702.81;4988459;28;19921;-86
2023/03/09 07:28:02;;;;;;;;;;;;;;;8.83;nan;98708.59;4986369;28;19976;-86
2023/03/09 07:30:28;;;;;;;;;;;;;;;8.93;nan;98708.28;4991204;28;20245;-86
2023/03/09 07:32:53;;;;;;;;;;;;;;;8.97;nan;98725.38;5011027;28;19917;-86
2023/03/09 07:35:18;;;;;;;;;;;;;;;9.03;nan;98719.34;5012549;28;19913;-87
2023/03/09 07:37:43;;;;;;;;;;;;;;;9.09;nan;98731.00;5011492;28;19919;-86
2023/03/09 07:40:09;;;;;;;;;;;;;;;9.16;nan;98731.06;5010914;28;19928;-86
2023/03/09 07:42:34;;;;;;;;;;;;;;;9.20;nan;98734.94;5011508;28;19921;-86
2023/03/09 07:44:59;;;;;;;;;;;;;;;9.24;nan;98734.38;4994099;28;19917;-87
2023/03/09 07:47:25;;;;;;;;;;;;;;;9.30;nan;98738.13;4992891;28;19913;-86
2023/03/09 07:49:50;;;;;;;;;;;;;;;9.31;nan;98748.44;4993342;28;20378;-86
2023/03/09 07:52:15;;;;;;;;;;;;;;;9.34;nan;98755.19;5010124;28;19913;-86
2023/03/09 07:54:40;;;;;;;;;;;;;;;9.39;nan;98750.19;4992905;28;19920;-86
2023/03/09 07:57:05;;;;;;;;;;;;;;;9.44;nan;98763.63;4992725;28;19917;-86
2023/03/09 07:59:31;;;;;;;;;;;;;;;9.50;nan;98764.69;4993281;28;20214;-86
2023/03/09 08:01:56;;;;;;;;;;;;;;;9.50;nan;98783.16;4992356;28;19967;-86
2023/03/09 08:04:21;;;;;;;;;;;;;;;9.48;nan;98783.31;4992391;28;19925;-86
2023/03/09 08:06:46;;;;;;;;;;;;;;;9.43;nan;98777.78;4993042;28;19913;-86
2023/03/09 08:09:13;;;;;;;;;;;;;;;9.38;nan;98784.66;5010529;28;19913;-85
2023/03/09 08:11:38;;;;;;;;;;;;;;;9.38;nan;98797.84;4992299;28;19953;-86
2023/03/09 08:14:03;;;;;;;;;;;;;;;9.41;nan;98795.63;5009849;28;20227;-86
2023/03/09 08:16:28;;;;;;;;;;;;;;;9.42;nan;98792.00;4991921;28;20004;-86
2023/03/09 08:18:54;;;;;;;;;;;;;;;9.40;nan;98794.00;4992272;28;19917;-86
2023/03/09 08:21:19;;;;;;;;;;;;;;;9.45;nan;98788.97;5009535;28;20314;-85
2023/03/09 08:23:45;;;;;;;;;;;;;;;9.41;nan;98794.81;5009287;28;19918;-85
2023/03/09 08:26:11;;;;;;;;;;;;;;;9.39;nan;98800.31;5009190;28;19921;-85
2023/03/09 08:28:37;;;;;;;;;;;;;;;9.35;nan;98802.47;5009261;28;20013;-86
2023/03/09 08:31:03;;;;;;;;;;;;;;;9.32;nan;98804.69;5008645;28;20410;-86
2023/03/09 08:33:29;;;;;;;;;;;;;;;9.35;nan;98797.19;4990993;28;19917;-86
2023/03/09 08:35:54;;;;;;;;;;;;;;;9.38;nan;98806.56;5009397;28;19928;-86
2023/03/09 08:38:20;;;;;;;;;;;;;;;9.39;nan;98807.38;4992214;28;19917;-86
2023/03/09 08:40:45;;;;;;;;;;;;;;;9.41;nan;98814.09;5012966;28;20004;-86
2023/03/09 08:43:10;;;;;;;;;;;;;;;9.40;nan;98816.94;4994766;28;19948;-86
2023/03/09 08:45:36;;;;;;;;;;;;;;;9.37;nan;98823.41;4991618;28;19932;-86
2023/03/09 08:48:02;;;;;;;;;;;;;;;9.37;nan;98828.69;4994444;28;19913;-88
2023/03/09 08:50:27;;;;;;;;;;;;;;;9.35;nan;98831.50;5012365;28;20444;-86
2023/03/09 08:52:53;;;;;;;;;;;;;;;9.37;nan;98841.88;5000087;28;20008;-85
2023/03/09 08:55:18;;;;;;;;;;;;;;;9.31;nan;98847.88;4996582;28;20012;-86
2023/03/09 08:57:43;;;;;;;;;;;;;;;9.36;nan;98856.84;4997726;28;19913;-85
2023/03/09 09:00:10;;;;;;;;;;;;;;;9.34;nan;98860.69;5016531;28;20008;-85
2023/03/09 09:02:35;;;;;;;;;;;;;;;9.33;nan;98859.06;5016273;28;19924;-86
2023/03/09 09:05:00;;;;;;;;;;;;;;;9.34;nan;98853.63;4995280;28;19921;-86
2023/03/09 09:07:25;;;;;;;;;;;;;;;9.35;nan;98863.16;5012656;28;19917;-86
2023/03/09 09:09:51;;;;;;;;;;;;;;;9.35;nan;98868.44;4994075;28;20008;-86
2023/03/09 09:12:16;;;;;;;;;;;;;;;9.38;nan;98871.69;5011150;28;19964;-86
2023/03/09 09:14:42;;;;;;;;;;;;;;;9.39;nan;98876.81;4994803;28;19964;-85
2023/03/09 09:17:08;;;;;;;;;;;;;;;9.37;nan;98878.81;4994260;28;20004;-85
2023/03/09 09:19:34;;;;;;;;;;;;;;;9.40;nan;98882.88;5011639;28;19963;-86
2023/03/09 09:21:59;;;;;;;;;;;;;;;9.42;nan;98876.44;5010777;28;19971;-86
2023/03/09 09:24:25;;;;;;;;;;;;;;;9.45;nan;98880.50;5011575;28;19918;-86
2023/03/09 09:26:53;;;;;;;;;;;;;;;9.49;nan;98890.50;4994037;28;19956;-85
2023/03/09 09:29:18;;;;;;;;;;;;;;;9.54;nan;98897.88;5010309;28;19963;-85
2023/03/09 09:31:43;;;;;;;;;;;;;;;9.55;nan;98895.03;4980041;28;20012;-86
2023/03/09 09:34:08;;;;;;;;;;;;;;;9.57;nan;98898.31;4992848;28;19973;-86
2023/03/09 09:36:36;;;;;;;;;;;;;;;9.62;nan;98905.66;5008812;28;20291;-86
2023/03/09 09:39:02;;;;;;;;;;;;;;;9.65;nan;98909.75;4985372;28;19919;-86
2023/03/09 09:41:41;;;;;;;;;;;;;;;9.68;nan;98912.06;4996471;28;19920;-86
2023/03/09 09:44:12;;;;;;;;;;;;;;;9.72;nan;98913.28;4994334;28;19928;-86
2023/03/09 09:46:39;;;;;;;;;;;;;;;9.77;nan;98914.38;5013351;28;19921;-86
2023/03/09 09:49:04;;;;;;;;;;;;;;;9.81;nan;98922.75;4994786;28;20383;-85
2023/03/09 09:51:33;;;;;;;;;;;;;;;9.82;nan;98916.47;4993163;28;19940;-86
2023/03/09 09:53:58;;;;;;;;;;;;;;;9.87;nan;98923.84;4993322;28;19920;-86
2023/03/09 09:56:26;;;;;;;;;;;;;;;9.90;nan;98931.38;5010157;28;19913;-86
2023/03/09 09:59:02;;;;;;;;;;;;;;;9.96;nan;98935.88;4995073;28;19913;-85
2023/03/09 10:01:35;;;;;;;;;;;;;;;10.01;nan;98944.09;5012237;28;20359;-86
2023/03/09 10:04:06;;;;;;;;;;;;;;;10.07;nan;98939.88;5012154;28;19921;-86
2023/03/09 10:06:31;;;;;;;;;;;;;;;10.06;nan;98939.06;5011627;28;19940;-86
2023/03/09 10:09:11;;;;;;;;;;;;;;;10.10;nan;98947.41;5011615;28;19921;-86
2023/03/09 10:11:41;;;;;;;;;;;;;;;10.09;nan;98945.78;4993605;28;19917;-86
2023/03/09 10:14:15;;;;;;;;;;;;;;;10.13;nan;98952.31;5009869;28;19921;-86
2023/03/09 10:16:43;;;;;;;;;;;;;;;10.14;nan;98943.41;5005301;28;20375;-87
2023/03/09 10:19:15;;;;;;;;;;;;;;;10.16;nan;98963.34;4995180;28;20374;-86
2023/03/09 10:21:44;;;;;;;;;;;;;;;10.18;nan;98958.69;5011644;28;19921;-85
2023/03/09 10:24:35;;;;;;;;;;;;;;;10.21;nan;98963.59;4993482;28;20012;-86
2023/03/09 10:27:04;;;;;;;;;;;;;;;10.23;nan;98963.41;5017754;28;19960;-86
2023/03/09 10:29:49;;;;;;;;;;;;;;;10.28;nan;98968.13;5010529;28;20003;-86
2023/03/09 10:32:24;;;;;;;;;;;;;;;10.33;nan;98968.41;5008916;28;19921;-86
2023/03/09 10:34:58;;;;;;;;;;;;;;;10.36;nan;98966.19;4992840;28;20361;-86
2023/03/09 10:37:24;;;;;;;;;;;;;;;10.43;nan;98970.75;5009596;28;20378;-85
2023/03/09 10:39:50;;;;;;;;;;;;;;;10.46;nan;98978.28;4992457;28;19920;-86
2023/03/09 10:42:18;;;;;;;;;;;;;;;10.52;nan;98977.53;5008770;28;19921;-86
2023/03/09 10:44:47;;;;;;;;;;;;;;;10.61;nan;98976.41;5009099;28;19925;-85
2023/03/09 10:47:12;;;;;;;;;;;;;;;10.65;nan;98982.13;4991980;28;19913;-86
2023/03/09 10:49:37;;;;;;;;;;;;;;;10.70;nan;98985.00;4990640;28;20336;-86
2023/03/09 10:52:04;;;;;;;;;;;;;;;10.75;nan;98980.78;4980770;28;19924;-86
2023/03/09 10:54:32;;;;;;;;;;;;;;;10.77;nan;98984.06;4992792;28;20044;-86
2023/03/09 10:56:57;;;;;;;;;;;;;;;10.79;nan;98987.31;4992205;28;20572;-86
2023/03/09 10:59:25;;;;;;;;;;;;;;;10.81;nan;98990.59;4991465;28;20012;-86
2023/03/09 11:01:51;;;;;;;;;;;;;;;10.86;nan;98987.38;4991323;28;19992;-86
2023/03/09 11:04:22;;;;;;;;;;;;;;;10.95;nan;98993.34;5008809;28;19929;-86
2023/03/09 11:06:51;;;;;;;;;;;;;;;11.02;nan;98987.09;5008979;28;19917;-86
2023/03/09 11:09:24;;;;;;;;;;;;;;;11.13;nan;98996.34;4991409;28;19923;-86
2023/03/09 11:12:06;;;;;;;;;;;;;;;11.31;nan;98992.38;4989238;28;19952;-86
2023/03/09 11:14:31;;;;;;;;;;;;;;;11.32;nan;98997.50;4993188;28;19960;-86
2023/03/09 11:16:59;;;;;;;;;;;;;;;11.39;nan;99000.16;5009072;28;19948;-86
2023/03/09 11:19:25;;;;;;;;;;;;;;;11.47;nan;99003.47;5009012;28;19941;-86
2023/03/09 11:21:58;;;;;;;;;;;;;;;11.52;nan;99000.25;4991574;28;20244;-85
2023/03/09 11:24:26;;;;;;;;;;;;;;;11.67;nan;99005.41;5008510;28;19975;-86
2023/03/09 11:26:58;;;;;;;;;;;;;;;11.73;nan;99006.44;4991691;28;20367;-86
2023/03/09 11:29:36;;;;;;;;;;;;;;;11.90;nan;99005.13;4991543;28;19920;-86
2023/03/09 11:32:01;;;;;;;;;;;;;;;12.05;nan;99008.44;4989588;28;19917;-86
2023/03/09 11:34:29;;;;;;;;;;;;;;;12.35;nan;99013.44;5008084;28;20375;-86
2023/03/09 11:37:05;;;;;;;;;;;;;;;12.58;nan;99015.72;5008772;28;19968;-87
2023/03/09 11:39:37;;;;;;;;;;;;;;;12.77;nan;99016.75;4991456;28;19914;-86
2023/03/09 11:42:05;;;;;;;;;;;;;;;13.17;nan;99008.78;4997139;28;19917;-86
2023/03/09 11:44:30;;;;;;;;;;;;;;;13.71;nan;99009.53;4990425;28;19949;-86
2023/03/09 11:46:58;;;;;;;;;;;;;;;13.77;nan;99009.50;4999109;28;19917;-85
2023/03/09 11:49:25;;;;;;;;;;;;;;;13.62;nan;99005.47;5009727;28;19913;-85
2023/03/09 11:51:51;;;;;;;;;;;;;;;13.75;nan;99016.03;5027032;28;19973;-87
2023/03/09 11:54:32;;;;;;;;;;;;;;;14.02;nan;99012.28;4990125;28;19928;-87
2023/03/09 11:57:00;;;;;;;;;;;;;;;14.59;nan;99006.28;5009628;28;19913;-87
2023/03/09 11:59:34;;;;;;;;;;;;;;;15.34;nan;99008.91;5011497;28;19913;-87
2023/03/09 12:02:03;;;;;;;;;;;;;;;15.61;nan;99008.63;5012515;28;19914;-87
2023/03/09 12:04:28;;;;;;;;;;;;;;;15.73;nan;99006.91;5012844;28;19921;-87
2023/03/09 12:06:54;;;;;;;;;;;;;;;15.97;nan;99012.34;4993920;28;19988;-87
2023/03/09 12:09:32;;;;;;;;;;;;;;;15.87;nan;99012.88;5010030;28;20367;-87
2023/03/09 12:12:02;;;;;;;;;;;;;;;15.49;nan;99004.06;4972752;28;20371;-87
2023/03/09 12:14:37;;;;;;;;;;;;;;;15.34;nan;98998.25;4992269;28;19913;-87
2023/03/09 12:17:05;;;;;;;;;;;;;;;15.12;nan;98997.88;4992657;28;19987;-87
2023/03/09 12:19:32;;;;;;;;;;;;;;;14.90;nan;98992.13;5006152;28;19918;-88
2023/03/09 12:22:02;;;;;;;;;;;;;;;14.63;nan;98991.50;5015684;28;19997;-87
2023/03/09 12:24:38;;;;;;;;;;;;;;;14.59;nan;98983.16;5014568;28;19917;-86
2023/03/09 12:27:05;;;;;;;;;;;;;;;14.71;nan;98993.91;5013807;28;20234;-87
2023/03/09 12:29:36;;;;;;;;;;;;;;;14.65;nan;98986.78;4996087;28;20521;-86
2023/03/09 12:32:19;;;;;;;;;;;;;;;14.74;nan;98982.81;4995871;28;19923;-87
2023/03/09 12:34:45;;;;;;;;;;;;;;;14.50;nan;98978.28;5014217;28;19913;-86
2023/03/09 12:37:29;;;;;;;;;;;;;;;14.71;nan;98971.81;4999469;28;19914;-86
2023/03/09 12:39:59;;;;;;;;;;;;;;;14.80;nan;98968.66;4996240;28;20358;-86
2023/03/09 12:42:26;;;;;;;;;;;;;;;14.75;nan;98965.00;5013475;28;20415;-87
2023/03/09 12:44:51;;;;;;;;;;;;;;;14.67;nan;98960.78;4995723;28;19976;-87
2023/03/09 12:47:20;;;;;;;;;;;;;;;14.41;nan;98959.09;5013513;28;19913;-86
2023/03/09 12:49:47;;;;;;;;;;;;;;;14.04;nan;98964.25;5011485;28;19913;-86
2023/03/09 12:52:17;;;;;;;;;;;;;;;14.03;nan;98965.25;5012830;28;19914;-87
2023/03/09 12:54:42;;;;;;;;;;;;;;;14.05;nan;98952.56;5013706;28;20389;-86
2023/03/09 12:57:09;;;;;;;;;;;;;;;14.15;nan;98968.03;5014164;28;19917;-87
2023/03/09 12:59:35;;;;;;;;;;;;;;;14.15;nan;98957.41;5013341;28;19951;-86
2023/03/09 13:02:17;;;;;;;;;;;;;;;14.37;nan;98960.53;4995550;28;19945;-87
2023/03/09 13:05:02;;;;;;;;;;;;;;;14.39;nan;98956.63;4995601;28;19918;-87
2023/03/09 13:07:27;;;;;;;;;;;;;;;14.26;nan;98964.72;5014179;28;20425;-86
2023/03/09 13:09:53;;;;;;;;;;;;;;;14.11;nan;98970.34;4996666;28;19917;-86
2023/03/09 13:12:28;;;;;;;;;;;;;;;13.99;nan;98979.97;4995373;28;19924;-87
2023/03/09 13:14:56;;;;;;;;;;;;;;;13.93;nan;98970.22;4997286;28;19921;-87